sensor_id;sensor_type;location;lat;lon;timestamp;pressure;altitude;pressure_sealevel;temperature;humidity
66486;BME280;53303;47.476;8.084;2023-04-03T00:02:11;95602.19;;;20.32;39.48
66486;BME280;53303;47.476;8.084;2023-04-03T00:04:37;95603.97;;;20.35;39.66
66486;BME280;53303;47.476;8.084;2023-04-03T00:07:04;95608.25;;;20.36;39.40
66486;BME280;53303;47.476;8.084;2023-04-03T00:09:29;95613.81;;;20.36;39.14
66486;BME280;53303;47.476;8.084;2023-04-03T00:11:56;95606.75;;;20.35;39.55
66486;BME280;53303;47.476;8.084;2023-04-03T00:14:24;95609.00;;;20.37;39.44
66486;BME280;53303;47.476;8.084;2023-04-03T00:16:49;95608.75;;;20.34;39.59
66486;BME280;53303;47.476;8.084;2023-04-03T00:19:15;95597.69;;;20.23;39.29
66486;BME280;53303;47.476;8.084;2023-04-03T00:21:40;95605.22;;;20.28;39.42
66486;BME280;53303;47.476;8.084;2023-04-03T00:24:06;95614.31;;;20.34;39.64
66486;BME280;53303;47.476;8.084;2023-04-03T00:26:31;95609.50;;;20.35;39.57
66486;BME280;53303;47.476;8.084;2023-04-03T00:28:57;95612.28;;;20.35;39.47
66486;BME280;53303;47.476;8.084;2023-04-03T00:31:22;95611.53;;;20.34;39.53
66486;BME280;53303;47.476;8.084;2023-04-03T00:33:47;95617.81;;;20.35;39.44
66486;BME280;53303;47.476;8.084;2023-04-03T00:36:13;95619.09;;;20.34;39.45
66486;BME280;53303;47.476;8.084;2023-04-03T00:38:39;95609.53;;;20.29;39.47
66486;BME280;53303;47.476;8.084;2023-04-03T00:41:05;95608.25;;;20.36;39.38
66486;BME280;53303;47.476;8.084;2023-04-03T00:43:30;95608.28;;;20.30;39.47
66486;BME280;53303;47.476;8.084;2023-04-03T00:45:58;95618.56;;;20.35;39.51
66486;BME280;53303;47.476;8.084;2023-04-03T00:48:40;95623.38;;;20.35;39.40
66486;BME280;53303;47.476;8.084;2023-04-03T00:51:10;95620.59;;;20.35;39.48
66486;BME280;53303;47.476;8.084;2023-04-03T00:53:49;95610.00;;;20.28;39.48
66486;BME280;53303;47.476;8.084;2023-04-03T00:56:18;95620.34;;;20.33;39.24
66486;BME280;53303;47.476;8.084;2023-04-03T00:58:58;95623.88;;;20.33;39.30
66486;BME280;53303;47.476;8.084;2023-04-03T01:01:28;95620.59;;;20.35;39.33
66486;BME280;53303;47.476;8.084;2023-04-03T01:03:55;95628.16;;;20.34;39.42
66486;BME280;53303;47.476;8.084;2023-04-03T01:06:29;95636.47;;;20.34;39.22
66486;BME280;53303;47.476;8.084;2023-04-03T01:08:57;95618.84;;;20.26;39.40
66486;BME280;53303;47.476;8.084;2023-04-03T01:11:23;95630.69;;;20.32;39.45
66486;BME280;53303;47.476;8.084;2023-04-03T01:13:48;95628.16;;;20.34;39.46
66486;BME280;53303;47.476;8.084;2023-04-03T01:16:14;95632.44;;;20.35;39.41
66486;BME280;53303;47.476;8.084;2023-04-03T01:18:42;95627.13;;;20.32;39.27
66486;BME280;53303;47.476;8.084;2023-04-03T01:21:40;95617.34;;;20.25;39.38
66486;BME280;53303;47.476;8.084;2023-04-03T01:26:39;95604.72;;;20.24;39.56
66486;BME280;53303;47.476;8.084;2023-04-03T01:29:05;95626.63;;;20.33;39.41
66486;BME280;53303;47.476;8.084;2023-04-03T01:31:50;95616.59;;;20.30;39.37
66486;BME280;53303;47.476;8.084;2023-04-03T01:34:18;95625.88;;;20.33;39.36
66486;BME280;53303;47.476;8.084;2023-04-03T01:36:44;95617.56;;;20.33;39.42
66486;BME280;53303;47.476;8.084;2023-04-03T01:39:12;95625.88;;;20.33;39.33
66486;BME280;53303;47.476;8.084;2023-04-03T01:41:38;95617.09;;;20.29;39.25
66486;BME280;53303;47.476;8.084;2023-04-03T01:44:03;95606.25;;;20.25;39.28
66486;BME280;53303;47.476;8.084;2023-04-03T01:46:31;95595.44;;;20.22;39.32
66486;BME280;53303;47.476;8.084;2023-04-03T01:48:57;95612.53;;;20.26;39.19
66486;BME280;53303;47.476;8.084;2023-04-03T01:51:22;95616.84;;;20.32;39.31
66486;BME280;53303;47.476;8.084;2023-04-03T01:53:47;95619.34;;;20.30;39.28
66486;BME280;53303;47.476;8.084;2023-04-03T01:56:13;95621.09;;;20.33;39.13
66486;BME280;53303;47.476;8.084;2023-04-03T01:58:38;95610.53;;;20.21;39.27
66486;BME280;53303;47.476;8.084;2023-04-03T02:01:07;95636.22;;;20.32;38.95
66486;BME280;53303;47.476;8.084;2023-04-03T02:03:33;95637.72;;;20.33;39.23
66486;BME280;53303;47.476;8.084;2023-04-03T02:05:58;95630.69;;;20.32;39.13
66486;BME280;53303;47.476;8.084;2023-04-03T02:08:24;95624.88;;;20.25;39.51
66486;BME280;53303;47.476;8.084;2023-04-03T02:10:50;95642.50;;;20.33;39.20
66486;BME280;53303;47.476;8.084;2023-04-03T02:13:18;95635.44;;;20.32;39.20
66486;BME280;53303;47.476;8.084;2023-04-03T02:15:43;95636.72;;;20.31;39.23
66486;BME280;53303;47.476;8.084;2023-04-03T02:18:12;95635.44;;;20.32;39.31
66486;BME280;53303;47.476;8.084;2023-04-03T02:20:37;95636.22;;;20.32;39.13
66486;BME280;53303;47.476;8.084;2023-04-03T02:23:07;95637.47;;;20.31;39.20
66486;BME280;53303;47.476;8.084;2023-04-03T02:25:33;95637.47;;;20.31;38.99
66486;BME280;53303;47.476;8.084;2023-04-03T02:27:59;95628.91;;;20.24;38.79
66486;BME280;53303;47.476;8.084;2023-04-03T02:30:25;95641.00;;;20.32;39.14
66486;BME280;53303;47.476;8.084;2023-04-03T02:32:50;95633.72;;;20.29;39.15
66486;BME280;53303;47.476;8.084;2023-04-03T02:35:16;95638.22;;;20.32;39.18
66486;BME280;53303;47.476;8.084;2023-04-03T02:37:41;95628.66;;;20.27;38.94
66486;BME280;53303;47.476;8.084;2023-04-03T02:40:08;95643.75;;;20.32;39.07
66486;BME280;53303;47.476;8.084;2023-04-03T02:42:33;95642.28;;;20.31;39.19
66486;BME280;53303;47.476;8.084;2023-04-03T02:44:59;95637.22;;;20.29;39.15
66486;BME280;53303;47.476;8.084;2023-04-03T02:47:26;95632.19;;;20.28;38.94
66486;BME280;53303;47.476;8.084;2023-04-03T02:49:52;95629.66;;;20.30;38.91
66486;BME280;53303;47.476;8.084;2023-04-03T02:52:18;95631.19;;;20.31;38.98
66486;BME280;53303;47.476;8.084;2023-04-03T02:54:43;95633.22;;;20.30;38.91
66486;BME280;53303;47.476;8.084;2023-04-03T02:57:09;95622.88;;;20.25;38.91
66486;BME280;53303;47.476;8.084;2023-04-03T02:59:37;95635.97;;;20.30;39.03
66486;BME280;53303;47.476;8.084;2023-04-03T03:02:08;95628.91;;;20.29;39.12
66486;BME280;53303;47.476;8.084;2023-04-03T03:04:34;95629.41;;;20.28;39.14
66486;BME280;53303;47.476;8.084;2023-04-03T03:07:00;95620.34;;;20.22;39.04
66486;BME280;53303;47.476;8.084;2023-04-03T03:09:25;95642.03;;;20.29;39.00
66486;BME280;53303;47.476;8.084;2023-04-03T03:11:51;95640.75;;;20.30;39.06
66486;BME280;53303;47.476;8.084;2023-04-03T03:14:17;95639.25;;;20.29;38.75
66486;BME280;53303;47.476;8.084;2023-04-03T03:16:42;95629.91;;;20.26;38.91
66486;BME280;53303;47.476;8.084;2023-04-03T03:19:07;95629.41;;;20.22;39.00
66486;BME280;53303;47.476;8.084;2023-04-03T03:21:33;95636.97;;;20.22;39.07
66486;BME280;53303;47.476;8.084;2023-04-03T03:23:58;95641.25;;;20.28;39.12
66486;BME280;53303;47.476;8.084;2023-04-03T03:26:26;95646.03;;;20.28;38.85
66486;BME280;53303;47.476;8.084;2023-04-03T03:28:51;95644.00;;;20.28;38.86
66486;BME280;53303;47.476;8.084;2023-04-03T03:31:19;95633.44;;;20.21;38.91
66486;BME280;53303;47.476;8.084;2023-04-03T03:33:47;95635.47;;;20.21;38.95
66486;BME280;53303;47.476;8.084;2023-04-03T03:36:15;95629.66;;;20.19;38.85
66486;BME280;53303;47.476;8.084;2023-04-03T03:38:41;95639.00;;;20.27;38.74
66486;BME280;53303;47.476;8.084;2023-04-03T03:41:06;95641.78;;;20.27;38.86
66486;BME280;53303;47.476;8.084;2023-04-03T03:43:34;95643.03;;;20.26;38.99
66486;BME280;53303;47.476;8.084;2023-04-03T03:45:59;95641.78;;;20.27;38.76
66486;BME280;53303;47.476;8.084;2023-04-03T03:48:25;95644.53;;;20.27;38.90
66486;BME280;53303;47.476;8.084;2023-04-03T03:50:50;95635.22;;;20.19;38.85
66486;BME280;53303;47.476;8.084;2023-04-03T03:53:16;95640.25;;;20.26;38.85
66486;BME280;53303;47.476;8.084;2023-04-03T03:55:42;95648.56;;;20.26;38.83
66486;BME280;53303;47.476;8.084;2023-04-03T03:58:07;95650.59;;;20.25;38.61
66486;BME280;53303;47.476;8.084;2023-04-03T04:00:33;95645.03;;;20.25;38.50
66486;BME280;53303;47.476;8.084;2023-04-03T04:02:58;95658.41;;;20.27;38.48
66486;BME280;53303;47.476;8.084;2023-04-03T04:05:24;95654.84;;;20.26;38.33
66486;BME280;53303;47.476;8.084;2023-04-03T04:07:51;95661.16;;;20.27;38.23
66486;BME280;53303;47.476;8.084;2023-04-03T04:10:17;95661.66;;;20.25;38.16
66486;BME280;53303;47.476;8.084;2023-04-03T04:12:42;95659.66;;;20.26;37.76
66486;BME280;53303;47.476;8.084;2023-04-03T04:15:08;95655.34;;;20.25;37.54
66486;BME280;53303;47.476;8.084;2023-04-03T04:17:34;95658.66;;;20.23;37.52
66486;BME280;53303;47.476;8.084;2023-04-03T04:20:01;95645.53;;;20.12;37.51
66486;BME280;53303;47.476;8.084;2023-04-03T04:22:26;95664.19;;;20.23;37.62
66486;BME280;53303;47.476;8.084;2023-04-03T04:24:51;95640.22;;;20.09;37.67
66486;BME280;53303;47.476;8.084;2023-04-03T04:27:17;95656.09;;;20.14;37.69
66486;BME280;53303;47.476;8.084;2023-04-03T04:29:42;95657.38;;;20.19;37.60
66486;BME280;53303;47.476;8.084;2023-04-03T04:32:10;95666.19;;;20.23;37.72
66486;BME280;53303;47.476;8.084;2023-04-03T04:34:38;95641.25;;;20.11;37.70
66486;BME280;53303;47.476;8.084;2023-04-03T04:37:03;95653.09;;;20.23;37.80
66486;BME280;53303;47.476;8.084;2023-04-03T04:39:33;95648.31;;;20.24;37.78
66486;BME280;53303;47.476;8.084;2023-04-03T04:41:58;95655.88;;;20.23;37.75
66486;BME280;53303;47.476;8.084;2023-04-03T04:44:24;95641.75;;;20.15;37.57
66486;BME280;53303;47.476;8.084;2023-04-03T04:46:49;95657.13;;;20.22;37.82
66486;BME280;53303;47.476;8.084;2023-04-03T04:49:17;95662.66;;;20.22;37.73
66486;BME280;53303;47.476;8.084;2023-04-03T04:51:45;95645.53;;;20.12;37.79
66486;BME280;53303;47.476;8.084;2023-04-03T04:54:10;95664.69;;;20.22;37.79
66486;BME280;53303;47.476;8.084;2023-04-03T04:56:36;95654.09;;;20.20;37.75
66486;BME280;53303;47.476;8.084;2023-04-03T04:59:04;95660.41;;;20.21;37.76
66486;BME280;53303;47.476;8.084;2023-04-03T05:01:30;95662.66;;;20.16;37.95
66486;BME280;53303;47.476;8.084;2023-04-03T05:03:55;95665.94;;;20.21;37.85
66486;BME280;53303;47.476;8.084;2023-04-03T05:06:20;95666.44;;;20.19;37.82
66486;BME280;53303;47.476;8.084;2023-04-03T05:08:46;95675.00;;;20.21;37.83
66486;BME280;53303;47.476;8.084;2023-04-03T05:11:13;95679.03;;;20.14;37.96
66486;BME280;53303;47.476;8.084;2023-04-03T05:13:39;95679.78;;;20.21;38.05
66486;BME280;53303;47.476;8.084;2023-04-03T05:16:04;95699.19;;;20.21;38.15
66486;BME280;53303;47.476;8.084;2023-04-03T05:18:32;95677.50;;;20.13;37.78
66486;BME280;53303;47.476;8.084;2023-04-03T05:20:58;95690.88;;;20.21;37.91
66486;BME280;53303;47.476;8.084;2023-04-03T05:23:24;95690.88;;;20.21;37.99
66486;BME280;53303;47.476;8.084;2023-04-03T05:25:55;95671.97;;;20.13;38.05
66486;BME280;53303;47.476;8.084;2023-04-03T05:28:20;95689.63;;;20.22;37.81
66486;BME280;53303;47.476;8.084;2023-04-03T05:30:52;95688.09;;;20.15;37.74
66486;BME280;53303;47.476;8.084;2023-04-03T05:33:18;95699.19;;;20.21;37.70
66486;BME280;53303;47.476;8.084;2023-04-03T05:35:43;95699.19;;;20.21;37.98
66486;BME280;53303;47.476;8.084;2023-04-03T05:38:09;95695.66;;;20.20;37.75
66486;BME280;53303;47.476;8.084;2023-04-03T05:40:34;95696.16;;;20.19;37.87
66486;BME280;53303;47.476;8.084;2023-04-03T05:43:02;95694.88;;;20.14;37.88
66486;BME280;53303;47.476;8.084;2023-04-03T05:45:30;95705.72;;;20.17;37.79
66486;BME280;53303;47.476;8.084;2023-04-03T05:47:58;95706.00;;;20.20;37.91
66486;BME280;53303;47.476;8.084;2023-04-03T05:50:23;95709.53;;;20.20;38.01
66486;BME280;53303;47.476;8.084;2023-04-03T05:52:51;95699.94;;;20.15;37.81
66486;BME280;53303;47.476;8.084;2023-04-03T05:55:17;95708.78;;;20.20;37.98
66486;BME280;53303;47.476;8.084;2023-04-03T05:57:43;95696.91;;;20.13;37.96
66486;BME280;53303;47.476;8.084;2023-04-03T06:00:13;95704.72;;;20.21;37.98
66486;BME280;53303;47.476;8.084;2023-04-03T06:02:41;95700.97;;;20.18;38.05
66486;BME280;53303;47.476;8.084;2023-04-03T06:05:08;95702.94;;;20.17;37.75
66486;BME280;53303;47.476;8.084;2023-04-03T06:07:34;95697.66;;;20.14;37.92
66486;BME280;53303;47.476;8.084;2023-04-03T06:09:59;95705.22;;;20.19;37.76
66486;BME280;53303;47.476;8.084;2023-04-03T06:12:25;95706.50;;;20.18;38.24
66486;BME280;53303;47.476;8.084;2023-04-03T06:14:51;95710.75;;;20.19;38.07
66486;BME280;53303;47.476;8.084;2023-04-03T06:17:16;95711.25;;;20.17;38.06
66486;BME280;53303;47.476;8.084;2023-04-03T06:19:43;95718.56;;;20.21;37.92
66486;BME280;53303;47.476;8.084;2023-04-03T06:22:09;95714.31;;;20.20;37.88
66486;BME280;53303;47.476;8.084;2023-04-03T06:24:36;95719.06;;;20.19;38.13
66486;BME280;53303;47.476;8.084;2023-04-03T06:27:02;95725.41;;;20.20;37.89
66486;BME280;53303;47.476;8.084;2023-04-03T06:29:28;95723.13;;;20.18;37.90
66486;BME280;53303;47.476;8.084;2023-04-03T06:31:53;95717.56;;;20.12;37.93
66486;BME280;53303;47.476;8.084;2023-04-03T06:34:18;95734.94;;;20.19;38.01
66486;BME280;53303;47.476;8.084;2023-04-03T06:36:46;95704.97;;;20.00;38.04
66486;BME280;53303;47.476;8.084;2023-04-03T06:39:17;95723.88;;;20.13;37.83
66486;BME280;53303;47.476;8.084;2023-04-03T06:41:43;95737.22;;;20.20;37.98
66486;BME280;53303;47.476;8.084;2023-04-03T06:44:09;95741.50;;;20.21;37.80
66486;BME280;53303;47.476;8.084;2023-04-03T06:46:37;95737.97;;;20.21;37.83
66486;BME280;53303;47.476;8.084;2023-04-03T06:49:03;95738.72;;;20.21;37.95
66486;BME280;53303;47.476;8.084;2023-04-03T06:51:29;95730.41;;;20.21;37.78
66486;BME280;53303;47.476;8.084;2023-04-03T06:53:58;95731.19;;;20.22;37.78
66486;BME280;53303;47.476;8.084;2023-04-03T06:56:27;95734.72;;;20.22;37.97
66486;BME280;53303;47.476;8.084;2023-04-03T06:58:54;95735.94;;;20.21;38.01
66486;BME280;53303;47.476;8.084;2023-04-03T07:01:24;95729.66;;;20.15;37.64
66486;BME280;53303;47.476;8.084;2023-04-03T07:03:51;95740.25;;;20.22;37.73
66486;BME280;53303;47.476;8.084;2023-04-03T07:06:17;95735.47;;;20.23;37.85
66486;BME280;53303;47.476;8.084;2023-04-03T07:08:43;95736.97;;;20.18;37.70
66486;BME280;53303;47.476;8.084;2023-04-03T07:11:09;95736.22;;;20.23;37.90
66486;BME280;53303;47.476;8.084;2023-04-03T07:13:36;95745.28;;;20.24;37.72
66486;BME280;53303;47.476;8.084;2023-04-03T07:16:04;95736.97;;;20.24;37.80
66486;BME280;53303;47.476;8.084;2023-04-03T07:18:31;95736.22;;;20.23;37.85
66486;BME280;53303;47.476;8.084;2023-04-03T07:20:57;95744.25;;;20.21;37.74
66486;BME280;53303;47.476;8.084;2023-04-03T07:23:23;95746.78;;;20.25;37.73
66486;BME280;53303;47.476;8.084;2023-04-03T07:25:51;95737.72;;;20.19;37.77
66486;BME280;53303;47.476;8.084;2023-04-03T07:28:18;95754.34;;;20.24;37.52
66486;BME280;53303;47.476;8.084;2023-04-03T07:30:52;95746.78;;;20.19;37.64
66486;BME280;53303;47.476;8.084;2023-04-03T07:33:20;95742.28;;;20.22;37.81
66486;BME280;53303;47.476;8.084;2023-04-03T07:35:46;95739.75;;;20.18;37.67
66486;BME280;53303;47.476;8.084;2023-04-03T07:38:12;95748.06;;;20.24;37.53
66486;BME280;53303;47.476;8.084;2023-04-03T07:40:40;95747.31;;;20.23;37.61
66486;BME280;53303;47.476;8.084;2023-04-03T07:43:05;95754.34;;;20.24;37.58
66486;BME280;53303;47.476;8.084;2023-04-03T07:45:31;95761.91;;;20.24;37.47
66486;BME280;53303;47.476;8.084;2023-04-03T07:47:57;95740.22;;;20.11;37.58
66486;BME280;53303;47.476;8.084;2023-04-03T07:50:23;95764.69;;;20.24;37.43
66486;BME280;53303;47.476;8.084;2023-04-03T07:52:48;95769.97;;;20.22;37.75
66486;BME280;53303;47.476;8.084;2023-04-03T07:55:19;95764.69;;;20.24;37.51
66486;BME280;53303;47.476;8.084;2023-04-03T07:57:45;95770.22;;;20.24;37.47
66486;BME280;53303;47.476;8.084;2023-04-03T08:00:14;95770.97;;;20.24;37.46
66486;BME280;53303;47.476;8.084;2023-04-03T08:02:40;95759.88;;;20.19;37.38
66486;BME280;53303;47.476;8.084;2023-04-03T08:05:06;95767.47;;;20.24;37.53
66486;BME280;53303;47.476;8.084;2023-04-03T08:07:31;95762.41;;;20.22;37.49
66486;BME280;53303;47.476;8.084;2023-04-03T08:09:56;95761.41;;;20.25;37.33
66486;BME280;53303;47.476;8.084;2023-04-03T08:12:22;95751.81;;;20.15;37.47
66486;BME280;53303;47.476;8.084;2023-04-03T08:14:48;95761.66;;;20.22;37.40
66486;BME280;53303;47.476;8.084;2023-04-03T08:17:13;95755.34;;;20.21;37.44
66486;BME280;53303;47.476;8.084;2023-04-03T08:19:39;95770.47;;;20.26;37.33
66486;BME280;53303;47.476;8.084;2023-04-03T08:22:06;95766.19;;;20.25;37.44
66486;BME280;53303;47.476;8.084;2023-04-03T08:24:34;95765.19;;;20.22;37.37
66486;BME280;53303;47.476;8.084;2023-04-03T08:27:00;95760.63;;;20.19;37.26
66486;BME280;53303;47.476;8.084;2023-04-03T08:29:26;95768.47;;;20.26;37.32
66486;BME280;53303;47.476;8.084;2023-04-03T08:31:51;95766.19;;;20.19;37.23
66486;BME280;53303;47.476;8.084;2023-04-03T08:34:18;95775.28;;;20.25;37.29
66486;BME280;53303;47.476;8.084;2023-04-03T08:36:44;95778.78;;;20.20;37.41
66486;BME280;53303;47.476;8.084;2023-04-03T08:39:10;95781.56;;;20.26;37.31
66486;BME280;53303;47.476;8.084;2023-04-03T08:41:42;95776.28;;;20.22;37.37
66486;BME280;53303;47.476;8.084;2023-04-03T08:50:19;95782.31;;;20.21;37.29
66486;BME280;53303;47.476;8.084;2023-04-03T08:52:51;95778.28;;;20.22;37.31
66486;BME280;53303;47.476;8.084;2023-04-03T08:58:09;95779.78;;;20.23;37.21
66486;BME280;53303;47.476;8.084;2023-04-03T09:00:44;95774.50;;;20.19;37.31
66486;BME280;53303;47.476;8.084;2023-04-03T09:03:16;95768.44;;;20.15;37.43
66486;BME280;53303;47.476;8.084;2023-04-03T09:10:43;95778.78;;;20.26;37.15
66486;BME280;53303;47.476;8.084;2023-04-03T09:13:24;95787.59;;;20.24;37.20
66486;BME280;53303;47.476;8.084;2023-04-03T09:16:12;95787.84;;;20.26;37.32
66486;BME280;53303;47.476;8.084;2023-04-03T09:18:45;95777.50;;;20.15;37.07
66486;BME280;53303;47.476;8.084;2023-04-03T09:21:34;95780.28;;;20.21;37.10
66486;BME280;53303;47.476;8.084;2023-04-03T09:24:04;95792.41;;;20.24;37.25
66486;BME280;53303;47.476;8.084;2023-04-03T09:26:36;95796.16;;;20.26;37.37
66486;BME280;53303;47.476;8.084;2023-04-03T09:29:07;95790.63;;;20.26;37.46
66486;BME280;53303;47.476;8.084;2023-04-03T09:31:42;95798.19;;;20.26;37.34
66486;BME280;53303;47.476;8.084;2023-04-03T09:37:39;95784.59;;;20.22;37.29
66486;BME280;53303;47.476;8.084;2023-04-03T09:40:11;95783.59;;;20.20;37.42
66486;BME280;53303;47.476;8.084;2023-04-03T09:43:08;95788.34;;;20.25;37.16
66486;BME280;53303;47.476;8.084;2023-04-03T09:45:46;95793.16;;;20.24;37.23
66486;BME280;53303;47.476;8.084;2023-04-03T09:50:52;95785.06;;;20.21;37.46
66486;BME280;53303;47.476;8.084;2023-04-03T09:53:28;95768.94;;;20.13;37.36
66486;BME280;53303;47.476;8.084;2023-04-03T09:55:54;95791.91;;;20.25;37.48
66486;BME280;53303;47.476;8.084;2023-04-03T10:00:57;95789.59;;;20.12;37.56
66486;BME280;53303;47.476;8.084;2023-04-03T10:03:34;95790.13;;;20.22;37.46
66486;BME280;53303;47.476;8.084;2023-04-03T10:06:01;95784.84;;;20.24;37.34
66486;BME280;53303;47.476;8.084;2023-04-03T10:08:33;95785.34;;;20.23;37.29
66486;BME280;53303;47.476;8.084;2023-04-03T10:11:13;95782.06;;;20.24;37.27
66486;BME280;53303;47.476;8.084;2023-04-03T10:13:56;95782.06;;;20.24;37.21
66486;BME280;53303;47.476;8.084;2023-04-03T10:16:28;95778.03;;;20.25;37.30
66486;BME280;53303;47.476;8.084;2023-04-03T10:24:47;95776.28;;;20.22;37.35
66486;BME280;53303;47.476;8.084;2023-04-03T10:27:21;95778.78;;;20.26;37.33
66486;BME280;53303;47.476;8.084;2023-04-03T10:33:11;95785.59;;;20.25;37.25
66486;BME280;53303;47.476;8.084;2023-04-03T10:46:53;95773.00;;;20.24;37.20
66486;BME280;53303;47.476;8.084;2023-04-03T10:54:42;95763.94;;;20.23;37.13
66486;BME280;53303;47.476;8.084;2023-04-03T10:57:13;95772.00;;;20.27;37.11
66486;BME280;53303;47.476;8.084;2023-04-03T10:59:46;95763.69;;;20.27;37.26
66486;BME280;53303;47.476;8.084;2023-04-03T11:02:22;95763.69;;;20.27;37.09
66486;BME280;53303;47.476;8.084;2023-04-03T11:04:56;95759.41;;;20.26;36.84
66486;BME280;53303;47.476;8.084;2023-04-03T11:07:29;95763.69;;;20.27;36.89
66486;BME280;53303;47.476;8.084;2023-04-03T11:10:11;95759.41;;;20.26;37.23
66486;BME280;53303;47.476;8.084;2023-04-03T11:12:52;95754.34;;;20.24;37.10
66486;BME280;53303;47.476;8.084;2023-04-03T11:15:24;95753.34;;;20.27;37.24
66486;BME280;53303;47.476;8.084;2023-04-03T11:18:08;95759.41;;;20.26;37.07
66486;BME280;53303;47.476;8.084;2023-04-03T11:20:36;95754.09;;;20.28;37.21
66486;BME280;53303;47.476;8.084;2023-04-03T11:23:06;95752.88;;;20.29;37.13
66486;BME280;53303;47.476;8.084;2023-04-03T11:25:39;95752.09;;;20.28;37.38
66486;BME280;53303;47.476;8.084;2023-04-03T11:28:12;95743.78;;;20.28;37.14
66486;BME280;53303;47.476;8.084;2023-04-03T11:31:55;95743.03;;;20.28;37.00
66486;BME280;53303;47.476;8.084;2023-04-03T11:36:26;95744.03;;;20.25;37.20
66486;BME280;53303;47.476;8.084;2023-04-03T11:38:55;95750.59;;;20.27;37.06
66486;BME280;53303;47.476;8.084;2023-04-03T11:41:27;95737.47;;;20.28;37.02
66486;BME280;53303;47.476;8.084;2023-04-03T11:44:30;95743.78;;;20.23;37.22
66486;BME280;53303;47.476;8.084;2023-04-03T11:47:00;95738.47;;;20.25;37.03
66486;BME280;53303;47.476;8.084;2023-04-03T12:00:51;95736.97;;;20.24;37.09
66486;BME280;53303;47.476;8.084;2023-04-03T12:16:43;95735.22;;;20.21;37.16
66486;BME280;53303;47.476;8.084;2023-04-03T12:24:30;95725.41;;;20.25;37.10
66486;BME280;53303;47.476;8.084;2023-04-03T12:48:51;95721.84;;;20.25;37.26
66486;BME280;53303;47.476;8.084;2023-04-03T12:51:32;95708.53;;;20.23;37.10
66486;BME280;53303;47.476;8.084;2023-04-03T12:54:30;95707.25;;;20.19;37.24
66486;BME280;53303;47.476;8.084;2023-04-03T12:57:11;95710.28;;;20.21;37.02
66486;BME280;53303;47.476;8.084;2023-04-03T12:59:36;95701.22;;;20.20;37.08
66486;BME280;53303;47.476;8.084;2023-04-03T13:02:09;95708.00;;;20.25;37.17
66486;BME280;53303;47.476;8.084;2023-04-03T13:04:38;95696.91;;;20.25;37.08
66486;BME280;53303;47.476;8.084;2023-04-03T13:07:04;95703.72;;;20.24;37.03
66486;BME280;53303;47.476;8.084;2023-04-03T13:09:31;95693.91;;;20.23;36.94
66486;BME280;53303;47.476;8.084;2023-04-03T13:14:27;95696.91;;;20.25;37.09
66486;BME280;53303;47.476;8.084;2023-04-03T13:17:12;95698.69;;;20.22;37.14
66486;BME280;53303;47.476;8.084;2023-04-03T13:19:39;95702.97;;;20.23;37.02
66486;BME280;53303;47.476;8.084;2023-04-03T13:24:51;95692.66;;;20.24;37.13
66486;BME280;53303;47.476;8.084;2023-04-03T13:27:18;95702.47;;;20.25;37.03
66486;BME280;53303;47.476;8.084;2023-04-03T13:29:50;95703.22;;;20.25;36.94
66486;BME280;53303;47.476;8.084;2023-04-03T13:32:20;95682.31;;;20.19;36.73
66486;BME280;53303;47.476;8.084;2023-04-03T13:34:46;95688.09;;;20.26;36.94
66486;BME280;53303;47.476;8.084;2023-04-03T13:37:30;95689.38;;;20.25;36.96
66486;BME280;53303;47.476;8.084;2023-04-03T13:40:18;95682.81;;;20.23;37.13
66486;BME280;53303;47.476;8.084;2023-04-03T13:42:44;95688.59;;;20.25;37.03
66486;BME280;53303;47.476;8.084;2023-04-03T13:45:22;95650.06;;;19.99;36.86
66486;BME280;53303;47.476;8.084;2023-04-03T13:48:09;95673.25;;;20.18;36.91
66486;BME280;53303;47.476;8.084;2023-04-03T13:50:54;95681.31;;;20.22;37.17
66486;BME280;53303;47.476;8.084;2023-04-03T13:53:22;95669.97;;;20.20;36.96
66486;BME280;53303;47.476;8.084;2023-04-03T13:58:25;95668.47;;;20.24;36.79
66486;BME280;53303;47.476;8.084;2023-04-03T14:01:01;95659.41;;;20.18;36.84
66486;BME280;53303;47.476;8.084;2023-04-03T14:03:37;95678.28;;;20.25;36.90
66486;BME280;53303;47.476;8.084;2023-04-03T14:06:10;95665.44;;;20.16;37.04
66486;BME280;53303;47.476;8.084;2023-04-03T14:08:38;95671.72;;;20.23;37.16
66486;BME280;53303;47.476;8.084;2023-04-03T14:11:04;95665.69;;;20.24;37.23
66486;BME280;53303;47.476;8.084;2023-04-03T14:13:31;95658.13;;;20.25;37.03
66486;BME280;53303;47.476;8.084;2023-04-03T14:15:57;95666.44;;;20.25;36.88
66486;BME280;53303;47.476;8.084;2023-04-03T14:18:25;95653.34;;;20.20;36.86
66486;BME280;53303;47.476;8.084;2023-04-03T14:20:50;95658.66;;;20.23;36.81
66486;BME280;53303;47.476;8.084;2023-04-03T14:23:15;95660.16;;;20.24;36.93
66486;BME280;53303;47.476;8.084;2023-04-03T14:25:41;95645.28;;;20.22;36.91
66486;BME280;53303;47.476;8.084;2023-04-03T14:28:18;95653.59;;;20.22;36.64
66486;BME280;53303;47.476;8.084;2023-04-03T14:30:48;95661.66;;;20.25;37.23
66486;BME280;53303;47.476;8.084;2023-04-03T14:33:20;95655.34;;;20.25;37.01
66486;BME280;53303;47.476;8.084;2023-04-03T14:35:46;95650.34;;;20.23;37.00
66486;BME280;53303;47.476;8.084;2023-04-03T14:38:25;95651.59;;;20.22;36.89
66486;BME280;53303;47.476;8.084;2023-04-03T14:40:51;95654.34;;;20.22;36.90
66486;BME280;53303;47.476;8.084;2023-04-03T14:43:20;95638.22;;;20.21;36.82
66486;BME280;53303;47.476;8.084;2023-04-03T14:45:46;95633.19;;;20.19;36.93
66486;BME280;53303;47.476;8.084;2023-04-03T14:48:19;95642.00;;;20.17;36.93
66486;BME280;53303;47.476;8.084;2023-04-03T14:50:46;95645.53;;;20.24;36.92
66486;BME280;53303;47.476;8.084;2023-04-03T14:53:14;95645.53;;;20.24;36.92
66486;BME280;53303;47.476;8.084;2023-04-03T14:55:47;95641.50;;;20.19;37.08
66486;BME280;53303;47.476;8.084;2023-04-03T14:58:19;95646.28;;;20.24;36.98
66486;BME280;53303;47.476;8.084;2023-04-03T15:00:45;95641.25;;;20.17;36.88
66486;BME280;53303;47.476;8.084;2023-04-03T15:03:20;95644.78;;;20.23;36.84